sensor_id;sensor_type;location;lat;lon;timestamp;temperature;humidity
12811;DHT22;6470;47.654;7.896;2023-11-19T00:04:49;7.60;99.90
12811;DHT22;6470;47.654;7.896;2023-11-19T00:07:16;6.80;99.90
12811;DHT22;6470;47.654;7.896;2023-11-19T00:09:42;7.00;99.90
12811;DHT22;6470;47.654;7.896;2023-11-19T00:12:09;4.10;99.90
12811;DHT22;6470;47.654;7.896;2023-11-19T00:17:01;7.20;99.90
12811;DHT22;6470;47.654;7.896;2023-11-19T00:19:26;6.80;99.90
12811;DHT22;6470;47.654;7.896;2023-11-19T00:21:52;7.40;99.90
12811;DHT22;6470;47.654;7.896;2023-11-19T00:24:18;7.70;99.90
12811;DHT22;6470;47.654;7.896;2023-11-19T00:26:45;7.40;99.90
12811;DHT22;6470;47.654;7.896;2023-11-19T00:31:39;8.20;99.90
12811;DHT22;6470;47.654;7.896;2023-11-19T00:36:31;7.50;99.90
12811;DHT22;6470;47.654;7.896;2023-11-19T00:38:57;8.30;99.90
12811;DHT22;6470;47.654;7.896;2023-11-19T00:41:23;4.80;99.90
12811;DHT22;6470;47.654;7.896;2023-11-19T00:43:49;7.80;99.90
12811;DHT22;6470;47.654;7.896;2023-11-19T00:46:14;7.60;99.90
12811;DHT22;6470;47.654;7.896;2023-11-19T00:48:40;8.30;99.90
12811;DHT22;6470;47.654;7.896;2023-11-19T00:51:06;7.40;99.90
12811;DHT22;6470;47.654;7.896;2023-11-19T00:53:32;7.70;99.90
12811;DHT22;6470;47.654;7.896;2023-11-19T00:55:59;7.50;99.90
12811;DHT22;6470;47.654;7.896;2023-11-19T00:58:25;7.90;99.90
12811;DHT22;6470;47.654;7.896;2023-11-19T01:00:51;7.70;99.90
12811;DHT22;6470;47.654;7.896;2023-11-19T01:03:17;8.10;99.90
12811;DHT22;6470;47.654;7.896;2023-11-19T01:05:42;7.90;99.90
12811;DHT22;6470;47.654;7.896;2023-11-19T01:08:10;8.30;99.90
12811;DHT22;6470;47.654;7.896;2023-11-19T01:10:37;7.70;99.90
12811;DHT22;6470;47.654;7.896;2023-11-19T01:13:02;7.70;99.90
12811;DHT22;6470;47.654;7.896;2023-11-19T01:15:31;7.70;99.90
12811;DHT22;6470;47.654;7.896;2023-11-19T01:17:57;7.20;99.90
12811;DHT22;6470;47.654;7.896;2023-11-19T01:20:23;7.80;99.90
12811;DHT22;6470;47.654;7.896;2023-11-19T01:22:49;7.90;99.90
12811;DHT22;6470;47.654;7.896;2023-11-19T01:25:15;7.80;99.90
12811;DHT22;6470;47.654;7.896;2023-11-19T01:27:41;7.30;99.90
12811;DHT22;6470;47.654;7.896;2023-11-19T01:30:08;7.70;99.90
12811;DHT22;6470;47.654;7.896;2023-11-19T01:32:35;8.10;99.90
12811;DHT22;6470;47.654;7.896;2023-11-19T01:35:03;6.90;99.90
12811;DHT22;6470;47.654;7.896;2023-11-19T01:39:57;7.80;99.90
12811;DHT22;6470;47.654;7.896;2023-11-19T01:42:23;6.90;99.90
12811;DHT22;6470;47.654;7.896;2023-11-19T01:45:00;8.00;99.90
12811;DHT22;6470;47.654;7.896;2023-11-19T01:47:30;7.40;99.90
12811;DHT22;6470;47.654;7.896;2023-11-19T01:52:23;8.00;99.90
12811;DHT22;6470;47.654;7.896;2023-11-19T01:54:50;7.90;99.90
12811;DHT22;6470;47.654;7.896;2023-11-19T01:59:44;8.20;99.90
12811;DHT22;6470;47.654;7.896;2023-11-19T02:02:10;7.10;99.90
12811;DHT22;6470;47.654;7.896;2023-11-19T02:07:04;8.00;99.90
12811;DHT22;6470;47.654;7.896;2023-11-19T02:09:30;8.60;99.90
12811;DHT22;6470;47.654;7.896;2023-11-19T02:11:56;7.30;99.90
12811;DHT22;6470;47.654;7.896;2023-11-19T02:14:25;5.50;99.90
12811;DHT22;6470;47.654;7.896;2023-11-19T02:16:52;7.60;99.90
12811;DHT22;6470;47.654;7.896;2023-11-19T02:19:20;8.10;99.90
12811;DHT22;6470;47.654;7.896;2023-11-19T02:21:46;8.80;99.90
12811;DHT22;6470;47.654;7.896;2023-11-19T02:24:14;8.40;99.90
12811;DHT22;6470;47.654;7.896;2023-11-19T02:29:21;7.90;99.90
12811;DHT22;6470;47.654;7.896;2023-11-19T02:31:47;7.40;99.90
12811;DHT22;6470;47.654;7.896;2023-11-19T02:34:13;7.80;99.90
12811;DHT22;6470;47.654;7.896;2023-11-19T02:36:39;8.50;99.90
12811;DHT22;6470;47.654;7.896;2023-11-19T02:39:07;8.20;99.90
12811;DHT22;6470;47.654;7.896;2023-11-19T02:41:36;6.60;99.90
12811;DHT22;6470;47.654;7.896;2023-11-19T02:44:06;8.60;99.90
12811;DHT22;6470;47.654;7.896;2023-11-19T02:48:57;8.40;99.90
12811;DHT22;6470;47.654;7.896;2023-11-19T02:53:49;8.50;99.90
12811;DHT22;6470;47.654;7.896;2023-11-19T02:56:15;8.50;99.90
12811;DHT22;6470;47.654;7.896;2023-11-19T03:01:12;6.80;99.90
12811;DHT22;6470;47.654;7.896;2023-11-19T03:03:48;8.50;99.90
12811;DHT22;6470;47.654;7.896;2023-11-19T03:06:19;8.10;99.90
12811;DHT22;6470;47.654;7.896;2023-11-19T03:08:46;8.70;99.90
12811;DHT22;6470;47.654;7.896;2023-11-19T03:11:12;8.20;99.90
12811;DHT22;6470;47.654;7.896;2023-11-19T03:16:03;8.10;99.90
12811;DHT22;6470;47.654;7.896;2023-11-19T03:18:29;8.90;99.90
12811;DHT22;6470;47.654;7.896;2023-11-19T03:23:21;9.20;99.90
12811;DHT22;6470;47.654;7.896;2023-11-19T03:25:48;9.60;99.90
12811;DHT22;6470;47.654;7.896;2023-11-19T03:28:14;9.90;99.90
12811;DHT22;6470;47.654;7.896;2023-11-19T03:30:40;9.60;99.90
12811;DHT22;6470;47.654;7.896;2023-11-19T03:33:05;9.70;99.90
12811;DHT22;6470;47.654;7.896;2023-11-19T03:35:31;10.40;99.90
12811;DHT22;6470;47.654;7.896;2023-11-19T03:37:58;10.50;99.90
12811;DHT22;6470;47.654;7.896;2023-11-19T03:40:24;9.80;99.90
12811;DHT22;6470;47.654;7.896;2023-11-19T03:42:50;11.80;99.90
12811;DHT22;6470;47.654;7.896;2023-11-19T03:45:16;12.30;99.90
12811;DHT22;6470;47.654;7.896;2023-11-19T03:47:42;12.20;99.90
12811;DHT22;6470;47.654;7.896;2023-11-19T03:52:35;12.20;99.90
12811;DHT22;6470;47.654;7.896;2023-11-19T03:55:01;11.80;99.90
12811;DHT22;6470;47.654;7.896;2023-11-19T03:57:27;12.10;99.90
12811;DHT22;6470;47.654;7.896;2023-11-19T03:59:53;11.30;99.90
12811;DHT22;6470;47.654;7.896;2023-11-19T04:02:21;11.70;99.90
12811;DHT22;6470;47.654;7.896;2023-11-19T04:04:46;12.00;99.90
12811;DHT22;6470;47.654;7.896;2023-11-19T04:07:12;12.50;99.90
12811;DHT22;6470;47.654;7.896;2023-11-19T04:09:38;11.80;99.90
12811;DHT22;6470;47.654;7.896;2023-11-19T04:12:04;11.90;99.90
12811;DHT22;6470;47.654;7.896;2023-11-19T04:16:55;11.80;99.90
12811;DHT22;6470;47.654;7.896;2023-11-19T04:21:47;12.20;99.90
12811;DHT22;6470;47.654;7.896;2023-11-19T04:26:44;12.30;99.90
12811;DHT22;6470;47.654;7.896;2023-11-19T04:29:14;12.30;99.90
12811;DHT22;6470;47.654;7.896;2023-11-19T04:31:40;9.60;99.90
12811;DHT22;6470;47.654;7.896;2023-11-19T04:34:06;12.40;99.90
12811;DHT22;6470;47.654;7.896;2023-11-19T04:36:32;11.00;99.90
12811;DHT22;6470;47.654;7.896;2023-11-19T04:38:59;11.00;99.90
12811;DHT22;6470;47.654;7.896;2023-11-19T04:41:25;12.10;99.90
12811;DHT22;6470;47.654;7.896;2023-11-19T04:43:53;12.40;99.90
12811;DHT22;6470;47.654;7.896;2023-11-19T04:46:18;12.00;99.90
12811;DHT22;6470;47.654;7.896;2023-11-19T04:48:45;12.10;99.90
12811;DHT22;6470;47.654;7.896;2023-11-19T04:51:10;11.60;99.90
12811;DHT22;6470;47.654;7.896;2023-11-19T04:53:36;12.00;99.90
12811;DHT22;6470;47.654;7.896;2023-11-19T04:56:08;12.30;99.90
12811;DHT22;6470;47.654;7.896;2023-11-19T04:58:34;12.00;99.90
12811;DHT22;6470;47.654;7.896;2023-11-19T05:01:03;11.90;99.90
12811;DHT22;6470;47.654;7.896;2023-11-19T05:03:29;11.50;99.90
12811;DHT22;6470;47.654;7.896;2023-11-19T05:05:55;12.10;99.90
12811;DHT22;6470;47.654;7.896;2023-11-19T05:08:20;12.30;99.90
12811;DHT22;6470;47.654;7.896;2023-11-19T05:10:46;11.70;99.90
12811;DHT22;6470;47.654;7.896;2023-11-19T05:13:12;12.10;99.90
12811;DHT22;6470;47.654;7.896;2023-11-19T05:15:38;9.90;99.90
12811;DHT22;6470;47.654;7.896;2023-11-19T05:18:04;11.60;99.90
12811;DHT22;6470;47.654;7.896;2023-11-19T05:20:30;12.20;99.90
12811;DHT22;6470;47.654;7.896;2023-11-19T05:25:22;11.70;99.90
12811;DHT22;6470;47.654;7.896;2023-11-19T05:27:48;11.00;99.90
12811;DHT22;6470;47.654;7.896;2023-11-19T05:32:40;9.60;99.90
12811;DHT22;6470;47.654;7.896;2023-11-19T05:35:07;12.40;99.90
12811;DHT22;6470;47.654;7.896;2023-11-19T05:37:33;12.50;99.90
12811;DHT22;6470;47.654;7.896;2023-11-19T05:40:00;10.00;99.90
12811;DHT22;6470;47.654;7.896;2023-11-19T05:42:28;12.40;99.90
12811;DHT22;6470;47.654;7.896;2023-11-19T05:44:54;12.40;99.90
12811;DHT22;6470;47.654;7.896;2023-11-19T05:47:20;11.90;99.90
12811;DHT22;6470;47.654;7.896;2023-11-19T05:49:45;12.20;99.90
12811;DHT22;6470;47.654;7.896;2023-11-19T05:52:11;12.20;99.90
12811;DHT22;6470;47.654;7.896;2023-11-19T05:54:38;12.30;99.90
12811;DHT22;6470;47.654;7.896;2023-11-19T05:57:07;12.70;99.90
12811;DHT22;6470;47.654;7.896;2023-11-19T05:59:36;12.20;99.90
12811;DHT22;6470;47.654;7.896;2023-11-19T06:02:05;11.80;99.90
12811;DHT22;6470;47.654;7.896;2023-11-19T06:04:30;11.80;99.90
12811;DHT22;6470;47.654;7.896;2023-11-19T06:09:22;12.20;99.90
12811;DHT22;6470;47.654;7.896;2023-11-19T06:11:51;11.90;99.90
12811;DHT22;6470;47.654;7.896;2023-11-19T06:14:18;12.30;99.90
12811;DHT22;6470;47.654;7.896;2023-11-19T06:16:44;12.50;99.90
12811;DHT22;6470;47.654;7.896;2023-11-19T06:19:09;12.20;99.90
12811;DHT22;6470;47.654;7.896;2023-11-19T06:21:37;12.40;99.90
12811;DHT22;6470;47.654;7.896;2023-11-19T06:26:29;12.60;99.90
12811;DHT22;6470;47.654;7.896;2023-11-19T06:31:20;15.00;99.90
12811;DHT22;6470;47.654;7.896;2023-11-19T06:33:46;15.10;99.90
12811;DHT22;6470;47.654;7.896;2023-11-19T06:36:14;11.90;99.90
12811;DHT22;6470;47.654;7.896;2023-11-19T06:38:42;12.10;99.90
12811;DHT22;6470;47.654;7.896;2023-11-19T06:41:08;11.60;99.90
12811;DHT22;6470;47.654;7.896;2023-11-19T06:43:37;11.90;99.90
12811;DHT22;6470;47.654;7.896;2023-11-19T06:46:03;11.90;99.90
12811;DHT22;6470;47.654;7.896;2023-11-19T06:48:32;11.80;99.90
12811;DHT22;6470;47.654;7.896;2023-11-19T06:50:57;12.20;99.90
12811;DHT22;6470;47.654;7.896;2023-11-19T06:53:23;15.00;99.90
12811;DHT22;6470;47.654;7.896;2023-11-19T06:55:49;12.60;99.90
12811;DHT22;6470;47.654;7.896;2023-11-19T06:58:14;12.50;99.90
12811;DHT22;6470;47.654;7.896;2023-11-19T07:03:06;15.30;99.90
12811;DHT22;6470;47.654;7.896;2023-11-19T07:05:36;12.30;99.90
12811;DHT22;6470;47.654;7.896;2023-11-19T07:10:30;12.40;99.90
12811;DHT22;6470;47.654;7.896;2023-11-19T07:12:56;15.30;99.90
12811;DHT22;6470;47.654;7.896;2023-11-19T07:15:21;11.80;99.90
12811;DHT22;6470;47.654;7.896;2023-11-19T07:17:47;11.60;99.90
12811;DHT22;6470;47.654;7.896;2023-11-19T07:22:43;11.70;99.90
12811;DHT22;6470;47.654;7.896;2023-11-19T07:25:08;12.20;99.90
12811;DHT22;6470;47.654;7.896;2023-11-19T07:27:34;12.60;99.90
12811;DHT22;6470;47.654;7.896;2023-11-19T07:30:00;10.00;99.90
12811;DHT22;6470;47.654;7.896;2023-11-19T07:32:25;12.20;99.90
12811;DHT22;6470;47.654;7.896;2023-11-19T07:34:51;12.40;99.90
12811;DHT22;6470;47.654;7.896;2023-11-19T07:37:17;12.10;99.90
12811;DHT22;6470;47.654;7.896;2023-11-19T07:39:42;14.90;99.90
12811;DHT22;6470;47.654;7.896;2023-11-19T07:42:08;12.30;99.90
12811;DHT22;6470;47.654;7.896;2023-11-19T07:44:34;12.00;99.90
12811;DHT22;6470;47.654;7.896;2023-11-19T07:47:00;14.80;99.90
12811;DHT22;6470;47.654;7.896;2023-11-19T07:49:26;15.20;99.90
12811;DHT22;6470;47.654;7.896;2023-11-19T07:51:51;15.10;99.90
12811;DHT22;6470;47.654;7.896;2023-11-19T07:54:18;11.60;99.90
12811;DHT22;6470;47.654;7.896;2023-11-19T07:56:43;12.00;99.90
12811;DHT22;6470;47.654;7.896;2023-11-19T07:59:09;11.70;99.90
12811;DHT22;6470;47.654;7.896;2023-11-19T08:04:01;9.60;99.90
12811;DHT22;6470;47.654;7.896;2023-11-19T08:06:27;15.20;99.90
12811;DHT22;6470;47.654;7.896;2023-11-19T08:08:53;15.20;99.90
12811;DHT22;6470;47.654;7.896;2023-11-19T08:16:11;14.90;99.90
12811;DHT22;6470;47.654;7.896;2023-11-19T08:18:37;12.20;99.90
12811;DHT22;6470;47.654;7.896;2023-11-19T08:21:03;15.00;99.90
12811;DHT22;6470;47.654;7.896;2023-11-19T08:25:56;12.10;99.90
12811;DHT22;6470;47.654;7.896;2023-11-19T08:28:22;12.00;99.90
12811;DHT22;6470;47.654;7.896;2023-11-19T08:30:47;12.40;99.90
12811;DHT22;6470;47.654;7.896;2023-11-19T08:33:13;11.80;99.90
12811;DHT22;6470;47.654;7.896;2023-11-19T08:35:40;12.00;99.90
12811;DHT22;6470;47.654;7.896;2023-11-19T08:40:32;14.70;99.90
12811;DHT22;6470;47.654;7.896;2023-11-19T08:42:57;15.10;99.90
12811;DHT22;6470;47.654;7.896;2023-11-19T08:45:24;15.20;99.90
12811;DHT22;6470;47.654;7.896;2023-11-19T08:47:51;15.00;99.90
12811;DHT22;6470;47.654;7.896;2023-11-19T08:50:16;14.50;99.90
12811;DHT22;6470;47.654;7.896;2023-11-19T08:52:42;15.10;99.90
12811;DHT22;6470;47.654;7.896;2023-11-19T08:55:08;14.70;99.90
12811;DHT22;6470;47.654;7.896;2023-11-19T08:57:35;15.10;99.90
12811;DHT22;6470;47.654;7.896;2023-11-19T09:00:01;15.00;99.90
12811;DHT22;6470;47.654;7.896;2023-11-19T09:02:28;15.40;99.90
12811;DHT22;6470;47.654;7.896;2023-11-19T09:04:54;15.50;99.90
12811;DHT22;6470;47.654;7.896;2023-11-19T09:07:19;14.80;99.90
12811;DHT22;6470;47.654;7.896;2023-11-19T09:14:39;15.10;99.90
12811;DHT22;6470;47.654;7.896;2023-11-19T09:17:05;15.40;99.90
12811;DHT22;6470;47.654;7.896;2023-11-19T09:19:32;14.50;99.90
12811;DHT22;6470;47.654;7.896;2023-11-19T09:24:25;14.50;99.90
12811;DHT22;6470;47.654;7.896;2023-11-19T09:26:50;15.30;99.90
12811;DHT22;6470;47.654;7.896;2023-11-19T09:29:16;14.70;99.90
12811;DHT22;6470;47.654;7.896;2023-11-19T09:31:42;15.40;99.90
12811;DHT22;6470;47.654;7.896;2023-11-19T09:34:07;15.50;99.90
12811;DHT22;6470;47.654;7.896;2023-11-19T09:36:33;15.10;99.90
12811;DHT22;6470;47.654;7.896;2023-11-19T09:41:30;12.60;99.90
12811;DHT22;6470;47.654;7.896;2023-11-19T09:43:56;15.10;99.90
12811;DHT22;6470;47.654;7.896;2023-11-19T09:46:22;15.20;99.90
12811;DHT22;6470;47.654;7.896;2023-11-19T09:48:52;15.40;99.90
12811;DHT22;6470;47.654;7.896;2023-11-19T09:51:20;15.50;99.90
12811;DHT22;6470;47.654;7.896;2023-11-19T09:53:46;14.60;99.90
12811;DHT22;6470;47.654;7.896;2023-11-19T09:56:12;14.90;99.90
12811;DHT22;6470;47.654;7.896;2023-11-19T10:01:05;15.30;99.90
12811;DHT22;6470;47.654;7.896;2023-11-19T10:03:36;15.40;99.90
12811;DHT22;6470;47.654;7.896;2023-11-19T10:06:08;15.90;99.90
12811;DHT22;6470;47.654;7.896;2023-11-19T10:08:37;15.80;99.90
12811;DHT22;6470;47.654;7.896;2023-11-19T10:11:05;15.60;99.90
12811;DHT22;6470;47.654;7.896;2023-11-19T10:13:31;15.50;99.90
12811;DHT22;6470;47.654;7.896;2023-11-19T10:15:58;15.90;99.90
12811;DHT22;6470;47.654;7.896;2023-11-19T10:18:26;15.50;99.90
12811;DHT22;6470;47.654;7.896;2023-11-19T10:20:52;15.50;99.90
12811;DHT22;6470;47.654;7.896;2023-11-19T10:23:20;15.30;99.90
12811;DHT22;6470;47.654;7.896;2023-11-19T10:25:47;15.50;99.90
12811;DHT22;6470;47.654;7.896;2023-11-19T10:28:15;12.60;99.90
12811;DHT22;6470;47.654;7.896;2023-11-19T10:30:42;15.60;99.90
12811;DHT22;6470;47.654;7.896;2023-11-19T10:33:12;15.50;99.90
12811;DHT22;6470;47.654;7.896;2023-11-19T10:35:57;15.60;99.90
12811;DHT22;6470;47.654;7.896;2023-11-19T10:38:24;12.70;99.90
12811;DHT22;6470;47.654;7.896;2023-11-19T10:40:50;15.20;99.90
12811;DHT22;6470;47.654;7.896;2023-11-19T10:48:09;12.70;99.90
12811;DHT22;6470;47.654;7.896;2023-11-19T10:50:40;14.80;99.90
12811;DHT22;6470;47.654;7.896;2023-11-19T10:53:08;12.80;99.90
12811;DHT22;6470;47.654;7.896;2023-11-19T10:55:38;15.50;99.90
12811;DHT22;6470;47.654;7.896;2023-11-19T10:58:10;15.20;99.90
12811;DHT22;6470;47.654;7.896;2023-11-19T11:00:48;15.50;99.90
12811;DHT22;6470;47.654;7.896;2023-11-19T11:03:20;15.40;99.90
12811;DHT22;6470;47.654;7.896;2023-11-19T11:05:49;15.60;99.90
12811;DHT22;6470;47.654;7.896;2023-11-19T11:08:16;15.90;99.90
12811;DHT22;6470;47.654;7.896;2023-11-19T11:13:18;15.80;99.90
12811;DHT22;6470;47.654;7.896;2023-11-19T11:15:45;15.20;99.90
12811;DHT22;6470;47.654;7.896;2023-11-19T11:18:13;14.90;99.90
12811;DHT22;6470;47.654;7.896;2023-11-19T11:20:40;15.60;99.90
12811;DHT22;6470;47.654;7.896;2023-11-19T11:28:47;14.70;99.90
12811;DHT22;6470;47.654;7.896;2023-11-19T11:31:37;15.90;99.90
12811;DHT22;6470;47.654;7.896;2023-11-19T11:39:40;15.20;99.90
12811;DHT22;6470;47.654;7.896;2023-11-19T11:42:36;15.70;99.90
12811;DHT22;6470;47.654;7.896;2023-11-19T11:50:23;15.70;99.90
12811;DHT22;6470;47.654;7.896;2023-11-19T11:55:28;10.30;99.90
12811;DHT22;6470;47.654;7.896;2023-11-19T11:57:57;15.20;99.90
12811;DHT22;6470;47.654;7.896;2023-11-19T12:00:30;10.10;99.90
12811;DHT22;6470;47.654;7.896;2023-11-19T12:02:59;13.20;99.90
12811;DHT22;6470;47.654;7.896;2023-11-19T12:08:02;15.90;99.90
12811;DHT22;6470;47.654;7.896;2023-11-19T12:10:30;9.90;99.90
12811;DHT22;6470;47.654;7.896;2023-11-19T12:13:01;15.40;99.90
12811;DHT22;6470;47.654;7.896;2023-11-19T12:15:27;15.40;99.90
12811;DHT22;6470;47.654;7.896;2023-11-19T12:17:54;14.70;99.90
12811;DHT22;6470;47.654;7.896;2023-11-19T12:20:22;13.00;99.90
12811;DHT22;6470;47.654;7.896;2023-11-19T12:22:48;15.30;99.90
12811;DHT22;6470;47.654;7.896;2023-11-19T12:27:44;15.60;99.90
12811;DHT22;6470;47.654;7.896;2023-11-19T12:30:10;15.10;99.90
12811;DHT22;6470;47.654;7.896;2023-11-19T12:32:43;9.90;99.90
12811;DHT22;6470;47.654;7.896;2023-11-19T12:35:11;12.80;99.90
12811;DHT22;6470;47.654;7.896;2023-11-19T12:37:42;15.50;99.90
12811;DHT22;6470;47.654;7.896;2023-11-19T12:40:24;15.60;99.90
12811;DHT22;6470;47.654;7.896;2023-11-19T12:42:54;15.60;99.90
12811;DHT22;6470;47.654;7.896;2023-11-19T12:50:17;15.60;99.90
12811;DHT22;6470;47.654;7.896;2023-11-19T12:52:58;14.50;99.90
12811;DHT22;6470;47.654;7.896;2023-11-19T12:55:25;15.50;99.90
12811;DHT22;6470;47.654;7.896;2023-11-19T12:57:52;15.30;99.90
12811;DHT22;6470;47.654;7.896;2023-11-19T13:00:23;15.60;99.90
12811;DHT22;6470;47.654;7.896;2023-11-19T13:02:52;15.40;99.90
12811;DHT22;6470;47.654;7.896;2023-11-19T13:08:04;15.60;99.90
12811;DHT22;6470;47.654;7.896;2023-11-19T13:10:33;13.50;99.90
12811;DHT22;6470;47.654;7.896;2023-11-19T13:13:08;15.70;99.90
12811;DHT22;6470;47.654;7.896;2023-11-19T13:15:35;15.10;99.90
12811;DHT22;6470;47.654;7.896;2023-11-19T13:18:01;15.30;99.90
12811;DHT22;6470;47.654;7.896;2023-11-19T13:20:28;15.90;99.90
12811;DHT22;6470;47.654;7.896;2023-11-19T13:22:59;13.40;99.90
12811;DHT22;6470;47.654;7.896;2023-11-19T13:25:26;15.70;99.90
12811;DHT22;6470;47.654;7.896;2023-11-19T13:27:52;10.40;99.90
12811;DHT22;6470;47.654;7.896;2023-11-19T13:30:18;15.10;99.90
12811;DHT22;6470;47.654;7.896;2023-11-19T13:32:45;10.30;99.90
12811;DHT22;6470;47.654;7.896;2023-11-19T13:35:12;15.60;99.90
12811;DHT22;6470;47.654;7.896;2023-11-19T13:40:06;15.90;99.90
12811;DHT22;6470;47.654;7.896;2023-11-19T13:47:24;15.40;99.90
12811;DHT22;6470;47.654;7.896;2023-11-19T13:52:16;15.60;99.90
12811;DHT22;6470;47.654;7.896;2023-11-19T13:54:42;15.30;99.90
12811;DHT22;6470;47.654;7.896;2023-11-19T13:57:08;13.40;99.90
12811;DHT22;6470;47.654;7.896;2023-11-19T13:59:40;13.40;99.90
12811;DHT22;6470;47.654;7.896;2023-11-19T14:02:06;15.30;99.90
12811;DHT22;6470;47.654;7.896;2023-11-19T14:04:33;15.20;99.90
12811;DHT22;6470;47.654;7.896;2023-11-19T14:09:25;15.70;99.90
12811;DHT22;6470;47.654;7.896;2023-11-19T14:11:51;16.00;99.90
12811;DHT22;6470;47.654;7.896;2023-11-19T14:14:17;15.80;99.90
12811;DHT22;6470;47.654;7.896;2023-11-19T14:16:42;14.90;99.90
12811;DHT22;6470;47.654;7.896;2023-11-19T14:19:08;15.80;99.90
12811;DHT22;6470;47.654;7.896;2023-11-19T14:21:34;10.30;99.90
12811;DHT22;6470;47.654;7.896;2023-11-19T14:23:59;15.70;99.90
12811;DHT22;6470;47.654;7.896;2023-11-19T14:28:51;10.20;99.90
12811;DHT22;6470;47.654;7.896;2023-11-19T14:31:16;10.20;99.90
12811;DHT22;6470;47.654;7.896;2023-11-19T14:36:08;15.60;99.90
12811;DHT22;6470;47.654;7.896;2023-11-19T14:38:34;15.90;99.90
12811;DHT22;6470;47.654;7.896;2023-11-19T14:41:00;10.10;99.90
12811;DHT22;6470;47.654;7.896;2023-11-19T14:43:25;10.20;99.90
12811;DHT22;6470;47.654;7.896;2023-11-19T14:45:51;10.20;99.90
12811;DHT22;6470;47.654;7.896;2023-11-19T14:48:18;10.00;99.90
12811;DHT22;6470;47.654;7.896;2023-11-19T14:50:44;15.60;99.90
12811;DHT22;6470;47.654;7.896;2023-11-19T14:55:36;15.70;99.90
12811;DHT22;6470;47.654;7.896;2023-11-19T14:58:02;15.50;99.90
12811;DHT22;6470;47.654;7.896;2023-11-19T15:00:28;10.20;99.90
12811;DHT22;6470;47.654;7.896;2023-11-19T15:02:54;15.10;99.90
12811;DHT22;6470;47.654;7.896;2023-11-19T15:05:20;15.00;99.90
12811;DHT22;6470;47.654;7.896;2023-11-19T15:07:46;15.40;99.90
12811;DHT22;6470;47.654;7.896;2023-11-19T15:10:13;14.60;99.90
12811;DHT22;6470;47.654;7.896;2023-11-19T15:15:08;10.00;99.90
12811;DHT22;6470;47.654;7.896;2023-11-19T15:17:35;14.80;99.90
12811;DHT22;6470;47.654;7.896;2023-11-19T15:20:03;15.70;99.90
12811;DHT22;6470;47.654;7.896;2023-11-19T15:22:28;15.30;99.90
12811;DHT22;6470;47.654;7.896;2023-11-19T15:24:54;15.80;99.90
12811;DHT22;6470;47.654;7.896;2023-11-19T15:27:20;15.70;99.90
12811;DHT22;6470;47.654;7.896;2023-11-19T15:29:46;12.40;99.90
12811;DHT22;6470;47.654;7.896;2023-11-19T15:32:11;15.10;99.90
12811;DHT22;6470;47.654;7.896;2023-11-19T15:34:37;15.90;99.90
12811;DHT22;6470;47.654;7.896;2023-11-19T15:41:58;9.80;99.90
12811;DHT22;6470;47.654;7.896;2023-11-19T15:44:25;9.70;99.90
12811;DHT22;6470;47.654;7.896;2023-11-19T15:46:50;15.50;99.90
12811;DHT22;6470;47.654;7.896;2023-11-19T15:49:16;15.60;99.90
12811;DHT22;6470;47.654;7.896;2023-11-19T15:51:42;10.00;99.90
12811;DHT22;6470;47.654;7.896;2023-11-19T15:54:08;9.70;99.90
12811;DHT22;6470;47.654;7.896;2023-11-19T15:56:33;15.20;99.90
12811;DHT22;6470;47.654;7.896;2023-11-19T16:01:25;15.50;99.90
12811;DHT22;6470;47.654;7.896;2023-11-19T16:03:52;15.50;99.90
12811;DHT22;6470;47.654;7.896;2023-11-19T16:06:18;9.80;99.90
12811;DHT22;6470;47.654;7.896;2023-11-19T16:08:44;15.80;99.90
12811;DHT22;6470;47.654;7.896;2023-11-19T16:11:10;15.90;99.90
12811;DHT22;6470;47.654;7.896;2023-11-19T16:13:36;15.40;99.90
12811;DHT22;6470;47.654;7.896;2023-11-19T16:16:02;15.80;99.90
12811;DHT22;6470;47.654;7.896;2023-11-19T16:18:28;15.80;99.90
12811;DHT22;6470;47.654;7.896;2023-11-19T16:20:54;9.70;99.90
12811;DHT22;6470;47.654;7.896;2023-11-19T16:23:20;15.30;99.90
12811;DHT22;6470;47.654;7.896;2023-11-19T16:25:46;15.50;99.90
12811;DHT22;6470;47.654;7.896;2023-11-19T16:28:12;15.10;99.90
12811;DHT22;6470;47.654;7.896;2023-11-19T16:30:38;15.50;99.90
12811;DHT22;6470;47.654;7.896;2023-11-19T16:33:04;15.40;99.90
12811;DHT22;6470;47.654;7.896;2023-11-19T16:35:29;15.60;99.90
12811;DHT22;6470;47.654;7.896;2023-11-19T16:40:22;9.90;99.90
12811;DHT22;6470;47.654;7.896;2023-11-19T16:42:48;10.00;99.90
12811;DHT22;6470;47.654;7.896;2023-11-19T16:45:15;9.80;99.90
12811;DHT22;6470;47.654;7.896;2023-11-19T16:47:41;14.90;99.90
12811;DHT22;6470;47.654;7.896;2023-11-19T16:52:33;12.30;99.90
12811;DHT22;6470;47.654;7.896;2023-11-19T16:55:00;12.70;99.90
12811;DHT22;6470;47.654;7.896;2023-11-19T16:57:29;15.40;99.90
12811;DHT22;6470;47.654;7.896;2023-11-19T16:59:56;15.60;99.90
12811;DHT22;6470;47.654;7.896;2023-11-19T17:02:23;9.70;99.90
12811;DHT22;6470;47.654;7.896;2023-11-19T17:04:50;15.50;99.90
12811;DHT22;6470;47.654;7.896;2023-11-19T17:07:16;10.00;99.90
12811;DHT22;6470;47.654;7.896;2023-11-19T17:09:42;15.60;99.90
12811;DHT22;6470;47.654;7.896;2023-11-19T17:12:08;15.20;99.90
12811;DHT22;6470;47.654;7.896;2023-11-19T17:17:00;15.10;99.90
12811;DHT22;6470;47.654;7.896;2023-11-19T17:19:26;15.60;99.90
12811;DHT22;6470;47.654;7.896;2023-11-19T17:21:52;15.00;99.90
12811;DHT22;6470;47.654;7.896;2023-11-19T17:26:44;15.20;99.90
12811;DHT22;6470;47.654;7.896;2023-11-19T17:29:11;15.00;99.90
12811;DHT22;6470;47.654;7.896;2023-11-19T17:31:36;15.20;99.90
12811;DHT22;6470;47.654;7.896;2023-11-19T17:34:03;12.10;99.90
12811;DHT22;6470;47.654;7.896;2023-11-19T17:36:29;15.50;99.90
12811;DHT22;6470;47.654;7.896;2023-11-19T17:38:56;15.20;99.90
12811;DHT22;6470;47.654;7.896;2023-11-19T17:41:21;15.50;99.90
12811;DHT22;6470;47.654;7.896;2023-11-19T17:43:47;15.20;99.90
12811;DHT22;6470;47.654;7.896;2023-11-19T17:46:14;15.50;99.90
12811;DHT22;6470;47.654;7.896;2023-11-19T17:48:39;15.30;99.90
12811;DHT22;6470;47.654;7.896;2023-11-19T17:51:06;14.70;99.90
12811;DHT22;6470;47.654;7.896;2023-11-19T17:53:32;15.80;99.90
12811;DHT22;6470;47.654;7.896;2023-11-19T17:56:00;15.50;99.90
12811;DHT22;6470;47.654;7.896;2023-11-19T18:00:52;15.60;99.90
12811;DHT22;6470;47.654;7.896;2023-11-19T18:03:17;15.70;99.90
12811;DHT22;6470;47.654;7.896;2023-11-19T18:05:43;15.50;99.90
12811;DHT22;6470;47.654;7.896;2023-11-19T18:08:09;9.60;99.90
12811;DHT22;6470;47.654;7.896;2023-11-19T18:10:37;15.10;99.90
12811;DHT22;6470;47.654;7.896;2023-11-19T18:13:03;15.50;99.90
12811;DHT22;6470;47.654;7.896;2023-11-19T18:15:29;9.50;99.90
12811;DHT22;6470;47.654;7.896;2023-11-19T18:17:54;15.50;99.90
12811;DHT22;6470;47.654;7.896;2023-11-19T18:20:21;15.50;99.90
12811;DHT22;6470;47.654;7.896;2023-11-19T18:22:48;15.60;99.90
12811;DHT22;6470;47.654;7.896;2023-11-19T18:25:14;14.90;99.90
12811;DHT22;6470;47.654;7.896;2023-11-19T18:30:09;15.30;99.90
12811;DHT22;6470;47.654;7.896;2023-11-19T18:32:38;15.20;99.90
12811;DHT22;6470;47.654;7.896;2023-11-19T18:35:07;15.40;99.90
12811;DHT22;6470;47.654;7.896;2023-11-19T18:37:40;15.40;99.90
12811;DHT22;6470;47.654;7.896;2023-11-19T18:40:08;15.90;99.90